createdAt,value
2018-02-20T00:07:15.720Z,16.83
2018-02-20T00:09:43.391Z,16.60
2018-02-20T00:12:11.058Z,16.63
2018-02-20T00:14:38.750Z,17.13
2018-02-20T00:17:06.367Z,17.33
2018-02-20T00:19:34.044Z,17.60
2018-02-20T00:22:01.663Z,16.37
2018-02-20T00:24:29.335Z,17.20
2018-02-20T00:26:57.112Z,17.00
2018-02-20T00:29:24.763Z,16.13
2018-02-20T00:31:52.420Z,18.23
2018-02-20T00:34:20.064Z,17.90
2018-02-20T00:36:47.718Z,17.97
2018-02-20T00:39:15.351Z,17.20
2018-02-20T00:41:42.975Z,16.77
2018-02-20T00:44:10.625Z,15.50
2018-02-20T00:46:38.258Z,16.37
2018-02-20T00:49:06.051Z,17.00
2018-02-20T00:51:33.691Z,16.70
2018-02-20T00:54:02.100Z,17.10
2018-02-20T00:56:30.113Z,16.40
2018-02-20T00:58:57.766Z,17.47
2018-02-20T01:01:25.440Z,17.07
2018-02-20T01:03:53.079Z,16.80
2018-02-20T01:06:20.699Z,17.53
2018-02-20T01:08:48.345Z,17.07
2018-02-20T01:11:16.812Z,16.80
2018-02-20T01:13:44.446Z,17.70
2018-02-20T01:16:12.112Z,17.53
2018-02-20T01:18:39.778Z,17.67
2018-02-20T01:21:07.419Z,17.60
2018-02-20T01:23:35.060Z,17.43
2018-02-20T01:26:02.684Z,18.50
2018-02-20T01:28:31.076Z,18.70
2018-02-20T01:30:59.492Z,18.87
2018-02-20T01:33:27.104Z,19.00
2018-02-20T01:35:54.764Z,19.10
2018-02-20T01:38:23.148Z,18.37
2018-02-20T01:40:50.785Z,18.87
2018-02-20T01:43:19.192Z,18.33
2018-02-20T01:45:47.047Z,18.57
2018-02-20T01:48:15.455Z,17.37
2018-02-20T01:50:55.362Z,17.20
2018-02-20T01:53:25.032Z,17.93
2018-02-20T01:55:52.665Z,18.03
2018-02-20T01:58:20.324Z,18.60
2018-02-20T02:06:40.098Z,18.87
2018-02-20T02:09:07.763Z,18.17
2018-02-20T02:11:35.417Z,19.87
2018-02-20T02:14:03.042Z,20.23
2018-02-20T02:16:31.462Z,19.53
2018-02-20T02:18:59.115Z,19.60
2018-02-20T02:21:27.567Z,20.77
2018-02-20T02:23:55.212Z,20.83
2018-02-20T02:26:22.825Z,21.83
2018-02-20T02:28:50.486Z,21.87
2018-02-20T02:31:18.115Z,21.27
2018-02-20T02:33:46.547Z,20.77
2018-02-20T02:36:14.247Z,20.83
2018-02-20T02:38:41.868Z,20.00
2018-02-20T02:41:09.527Z,20.53
2018-02-20T02:43:37.938Z,20.57
2018-02-20T02:46:05.701Z,19.80
2018-02-20T02:48:34.152Z,19.70
2018-02-20T02:51:01.798Z,20.53
2018-02-20T02:53:29.464Z,21.30
2018-02-20T02:55:57.129Z,20.47
2018-02-20T02:58:24.796Z,20.23
2018-02-20T03:00:52.447Z,21.30
2018-02-20T03:03:20.064Z,20.33
2018-02-20T03:05:47.709Z,21.73
2018-02-20T03:08:15.382Z,21.37
2018-02-20T03:10:43.805Z,20.60
2018-02-20T03:13:11.495Z,22.80
2018-02-20T03:15:39.123Z,21.23
2018-02-20T03:18:07.555Z,23.50
2018-02-20T03:20:35.171Z,22.17
2018-02-20T03:23:02.817Z,23.20
2018-02-20T03:25:30.480Z,23.60
2018-02-20T03:27:58.119Z,24.47
2018-02-20T03:30:25.762Z,25.37
2018-02-20T03:32:53.399Z,25.47
2018-02-20T03:35:21.033Z,26.07
2018-02-20T03:37:49.464Z,25.60
2018-02-20T03:40:17.166Z,26.33
2018-02-20T03:42:44.776Z,24.60
2018-02-20T03:45:12.479Z,27.30
2018-02-20T03:47:40.116Z,25.03
2018-02-20T03:50:08.546Z,25.00
2018-02-20T03:52:36.216Z,26.13
2018-02-20T03:55:03.846Z,25.70
2018-02-20T03:57:31.507Z,26.03
2018-02-20T03:59:59.111Z,27.37
2018-02-20T04:02:27.515Z,25.97
2018-02-20T04:04:55.227Z,26.47
2018-02-20T04:07:22.896Z,24.83
2018-02-20T04:09:50.590Z,26.53
2018-02-20T04:12:18.222Z,26.57
2018-02-20T04:14:45.900Z,26.07
2018-02-20T04:17:13.544Z,27.57
2018-02-20T04:19:41.956Z,27.43
2018-02-20T04:22:09.687Z,25.67
2018-02-20T04:24:37.308Z,26.23
2018-02-20T04:27:05.803Z,25.77
2018-02-20T04:29:33.459Z,26.10
2018-02-20T04:32:01.866Z,26.30
2018-02-20T04:34:29.523Z,25.57
2018-02-20T04:36:57.978Z,26.27
2018-02-20T04:39:46.108Z,26.13
2018-02-20T04:42:13.711Z,26.87
2018-02-20T04:44:42.512Z,26.43
2018-02-20T04:47:10.153Z,27.37
2018-02-20T04:49:37.768Z,25.90
2018-02-20T04:52:05.415Z,26.30
2018-02-20T04:54:33.128Z,26.80
2018-02-20T04:57:00.791Z,24.87
2018-02-20T04:59:28.446Z,25.30
2018-02-20T05:01:56.098Z,23.67
2018-02-20T05:04:23.780Z,26.37
2018-02-20T05:06:51.443Z,25.53
2018-02-20T05:09:19.095Z,24.87
2018-02-20T05:11:47.535Z,25.57
2018-02-20T05:14:15.167Z,25.87
2018-02-20T05:16:43.584Z,25.60
2018-02-20T05:19:11.251Z,25.27
2018-02-20T05:21:38.887Z,25.47
2018-02-20T05:24:06.584Z,24.47
2018-02-20T05:26:34.963Z,24.90
2018-02-20T05:29:03.392Z,25.33
2018-02-20T05:31:31.092Z,26.37
2018-02-20T05:33:59.226Z,25.77
2018-02-20T05:36:26.919Z,25.50
2018-02-20T05:38:54.546Z,25.73
2018-02-20T05:41:22.232Z,25.77
2018-02-20T05:43:51.664Z,27.57
2018-02-20T05:46:20.309Z,25.93
2018-02-20T05:48:48.930Z,25.17
2018-02-20T05:51:16.575Z,27.30
2018-02-20T05:53:44.279Z,26.53
2018-02-20T05:56:11.921Z,26.77
2018-02-20T05:58:39.606Z,27.60
2018-02-20T06:01:07.328Z,28.43
2018-02-20T06:03:34.949Z,27.93
2018-02-20T06:06:02.662Z,28.63
2018-02-20T06:08:30.288Z,27.10
2018-02-20T06:10:57.952Z,28.50
2018-02-20T06:13:25.662Z,28.40
2018-02-20T06:15:53.298Z,28.10
2018-02-20T06:18:20.959Z,28.53
2018-02-20T06:20:48.619Z,28.63
2018-02-20T06:23:17.043Z,27.93
2018-02-20T06:25:44.725Z,26.93
2018-02-20T06:28:12.363Z,27.13
2018-02-20T06:30:40.811Z,28.77
2018-02-20T06:33:08.435Z,28.53
2018-02-20T06:35:36.863Z,28.87
2018-02-20T06:38:04.508Z,28.37
2018-02-20T06:40:32.126Z,28.60
2018-02-20T06:42:59.804Z,29.00
2018-02-20T06:45:27.459Z,28.23
2018-02-20T06:47:55.119Z,27.67
2018-02-20T06:50:22.788Z,29.13
2018-02-20T06:52:50.409Z,29.43
2018-02-20T06:55:18.048Z,29.10
2018-02-20T06:57:46.448Z,29.03
2018-02-20T07:00:14.201Z,29.20
2018-02-20T07:02:41.840Z,29.53
2018-02-20T07:05:09.480Z,29.03
2018-02-20T07:07:37.188Z,30.43
2018-02-20T07:10:04.799Z,30.40
2018-02-20T07:12:32.514Z,29.90
2018-02-20T07:15:00.210Z,30.33
2018-02-20T07:17:27.867Z,29.50
2018-02-20T07:19:56.278Z,29.37
2018-02-20T07:22:23.912Z,29.93
2018-02-20T07:24:51.584Z,29.50
2018-02-20T07:27:19.298Z,29.60
2018-02-20T07:29:47.202Z,30.10
2018-02-20T07:32:15.673Z,32.53
2018-02-20T07:34:43.335Z,30.37
2018-02-20T07:37:10.997Z,29.60
2018-02-20T07:39:38.690Z,42.00
2018-02-20T07:42:06.337Z,39.87
2018-02-20T07:44:34.035Z,28.60
2018-02-20T07:47:01.684Z,27.90
2018-02-20T07:49:29.373Z,27.47
2018-02-20T07:51:57.051Z,26.33
2018-02-20T07:54:24.655Z,29.93
2018-02-20T07:56:53.123Z,32.07
2018-02-20T07:59:20.756Z,31.83
2018-02-20T08:01:48.409Z,26.13
2018-02-20T08:04:16.870Z,25.03
2018-02-20T08:06:44.528Z,26.50
2018-02-20T08:09:12.240Z,25.60
2018-02-20T08:11:39.947Z,26.20
2018-02-20T08:14:07.604Z,25.63
2018-02-20T08:16:36.032Z,25.50
2018-02-20T08:19:03.694Z,26.27
2018-02-20T08:21:31.361Z,24.67
2018-02-20T08:23:58.999Z,24.17
2018-02-20T08:26:26.640Z,30.67
2018-02-20T08:28:54.299Z,33.83
2018-02-20T08:31:21.946Z,26.87
2018-02-20T08:33:49.773Z,25.47
2018-02-20T08:36:17.480Z,24.07
2018-02-20T08:38:45.139Z,25.50
2018-02-20T08:41:12.800Z,25.97
2018-02-20T08:43:40.471Z,25.10
2018-02-20T08:46:08.159Z,25.03
2018-02-20T08:48:35.828Z,31.77
2018-02-20T08:51:03.500Z,24.67
2018-02-20T08:53:31.495Z,25.17
2018-02-20T08:55:59.115Z,24.07
2018-02-20T08:58:26.771Z,25.00
2018-02-20T09:00:55.192Z,22.40
2018-02-20T09:03:22.876Z,22.10
2018-02-20T09:05:50.587Z,26.27
2018-02-20T09:08:18.655Z,21.73
2018-02-20T09:10:46.320Z,22.80
2018-02-20T09:13:14.019Z,23.33
2018-02-20T09:15:41.694Z,23.23
2018-02-20T09:18:09.355Z,22.77
2018-02-20T09:20:37.015Z,23.00
2018-02-20T09:23:04.695Z,25.17
2018-02-20T09:37:15.914Z,21.20
2018-02-20T09:39:43.584Z,22.70
2018-02-20T09:42:11.268Z,25.70
2018-02-20T09:44:40.131Z,23.20
2018-02-20T09:47:08.668Z,23.93
2018-02-20T09:49:36.274Z,22.87
2018-02-20T09:52:03.947Z,23.30
2018-02-20T09:54:31.611Z,22.20
2018-02-20T09:56:59.264Z,21.87
2018-02-20T09:59:26.918Z,20.93
2018-02-20T10:01:54.535Z,21.27
2018-02-20T10:04:22.207Z,20.83
2018-02-20T10:06:50.701Z,21.40
2018-02-20T10:09:18.340Z,21.50
2018-02-20T10:11:46.058Z,20.93
2018-02-20T10:14:13.678Z,22.13
2018-02-20T10:16:41.350Z,21.77
2018-02-20T10:19:08.994Z,22.00
2018-02-20T10:21:36.654Z,20.67
2018-02-20T10:24:04.303Z,23.80
2018-02-20T10:26:31.960Z,20.93
2018-02-20T10:28:59.610Z,20.97
2018-02-20T10:31:27.992Z,40.87
2018-02-20T10:33:56.412Z,37.13
2018-02-20T10:36:24.072Z,22.37
2018-02-20T10:38:51.702Z,27.37
2018-02-20T10:41:19.367Z,20.47
2018-02-20T10:43:46.983Z,23.33
2018-02-20T10:46:15.644Z,20.77
2018-02-20T10:48:43.350Z,20.27
2018-02-20T10:51:11.795Z,20.03
2018-02-20T10:53:39.475Z,21.37
2018-02-20T10:56:07.138Z,24.00
2018-02-20T10:58:34.886Z,24.40
2018-02-20T11:01:02.612Z,20.00
2018-02-20T11:03:30.252Z,21.40
2018-02-20T11:08:58.207Z,19.60
2018-02-20T11:11:25.867Z,20.57
2018-02-20T11:13:53.557Z,21.00
2018-02-20T11:16:21.159Z,20.10
2018-02-20T11:18:49.975Z,20.40
2018-02-20T11:21:17.608Z,23.27
2018-02-20T11:23:45.291Z,20.33
2018-02-20T11:26:12.979Z,19.33
2018-02-20T11:28:40.588Z,19.47
2018-02-20T11:31:08.311Z,20.53
2018-02-20T11:33:35.919Z,19.47
2018-02-20T11:36:04.360Z,19.20
2018-02-20T11:38:32.012Z,20.93
2018-02-20T11:40:59.663Z,21.40
2018-02-20T11:43:27.333Z,19.07
2018-02-20T11:45:55.728Z,19.47
2018-02-20T11:48:23.364Z,19.20
2018-02-20T11:50:51.014Z,19.97
2018-02-20T11:53:18.695Z,24.60
2018-02-20T11:55:46.352Z,22.40
2018-02-20T11:58:14.035Z,22.00
2018-02-20T12:00:41.715Z,23.50
2018-02-20T12:03:09.351Z,33.63
2018-02-20T12:05:37.786Z,29.10
2018-02-20T12:08:05.475Z,19.53
2018-02-20T12:10:33.568Z,21.50
2018-02-20T12:15:59.279Z,20.00
2018-02-20T12:18:26.948Z,18.33
2018-02-20T12:20:54.616Z,19.67
2018-02-20T12:23:35.181Z,22.07
2018-02-20T12:26:03.612Z,20.43
2018-02-20T12:28:31.218Z,19.47
2018-02-20T12:31:00.529Z,20.60
2018-02-20T12:33:28.263Z,20.33
2018-02-20T12:35:55.950Z,20.67
2018-02-20T12:38:23.618Z,19.17
2018-02-20T12:40:51.264Z,20.10
2018-02-20T12:43:19.740Z,20.50
2018-02-20T12:45:47.377Z,20.07
2018-02-20T12:48:15.057Z,19.57
2018-02-20T12:50:42.764Z,20.17
2018-02-20T12:53:10.427Z,21.70
2018-02-20T12:55:38.130Z,20.00
2018-02-20T12:58:06.549Z,19.67
2018-02-20T13:00:34.211Z,19.03
2018-02-20T13:03:01.866Z,19.57
2018-02-20T13:05:30.271Z,19.90
2018-02-20T13:07:58.697Z,19.47
2018-02-20T13:10:26.339Z,19.27
2018-02-20T13:12:55.175Z,18.93
2018-02-20T13:15:22.871Z,19.63
2018-02-20T13:17:50.583Z,19.53
2018-02-20T13:20:19.012Z,18.83
2018-02-20T13:22:46.664Z,19.43
2018-02-20T13:25:14.330Z,20.50
2018-02-20T13:27:42.763Z,19.23
2018-02-20T13:30:10.403Z,19.93
2018-02-20T13:32:38.095Z,18.73
2018-02-20T13:35:05.778Z,19.63
2018-02-20T13:37:34.168Z,20.43
2018-02-20T13:40:01.819Z,19.93
2018-02-20T13:42:29.435Z,21.10
2018-02-20T13:44:57.119Z,22.60
2018-02-20T13:47:24.763Z,22.23
2018-02-20T13:49:52.404Z,20.63
2018-02-20T13:52:20.858Z,18.97
2018-02-20T13:54:48.491Z,19.97
2018-02-20T13:57:16.216Z,20.33
2018-02-20T13:59:43.853Z,20.60
2018-02-20T14:02:11.505Z,19.60
2018-02-20T14:04:39.187Z,20.30
2018-02-20T14:07:06.840Z,19.97
2018-02-20T14:09:35.272Z,19.90
2018-02-20T14:12:02.908Z,20.07
2018-02-20T14:14:31.335Z,19.57
2018-02-20T14:17:10.978Z,20.30
2018-02-20T14:19:38.660Z,24.37
2018-02-20T14:22:06.318Z,19.13
2018-02-20T14:24:33.939Z,20.30
2018-02-20T14:27:03.468Z,19.47
2018-02-20T14:29:31.082Z,19.70
2018-02-20T14:31:58.774Z,19.43
2018-02-20T14:34:26.419Z,20.00
2018-02-20T14:48:38.650Z,22.17
2018-02-20T14:51:06.308Z,19.80
2018-02-20T14:53:33.967Z,19.13
2018-02-20T14:56:01.601Z,18.50
2018-02-20T14:58:30.250Z,20.17
2018-02-20T15:00:57.924Z,21.33
2018-02-20T15:03:25.633Z,28.80
2018-02-20T15:05:53.376Z,25.43
2018-02-20T15:08:21.020Z,41.30
2018-02-20T15:10:48.739Z,50.50
2018-02-20T15:13:16.383Z,29.80
2018-02-20T15:15:44.108Z,21.20
2018-02-20T15:18:12.575Z,21.43
2018-02-20T15:20:40.217Z,20.37
2018-02-20T15:23:07.895Z,27.73
2018-02-20T15:25:35.532Z,21.67
2018-02-20T15:28:03.187Z,18.63
2018-02-20T15:30:30.849Z,18.97
2018-02-20T15:32:58.512Z,19.03
2018-02-20T15:35:26.935Z,17.60
2018-02-20T15:37:54.551Z,17.90
2018-02-20T15:40:22.222Z,19.37
2018-02-20T15:42:49.856Z,18.07
2018-02-20T15:54:21.687Z,18.03
2018-02-20T15:56:49.328Z,19.33
2018-02-20T15:59:17.883Z,17.83
2018-02-20T16:01:45.615Z,17.60
2018-02-20T16:04:14.008Z,16.07
2018-02-20T16:06:41.676Z,17.13
2018-02-20T16:12:14.415Z,15.97
2018-02-20T16:20:37.765Z,15.07
2018-02-20T16:23:06.549Z,16.47
2018-02-20T16:25:34.954Z,16.47
2018-02-20T16:28:02.787Z,16.53
2018-02-20T16:30:30.441Z,24.87
2018-02-20T16:32:58.101Z,17.57
2018-02-20T16:35:25.867Z,18.10
2018-02-20T16:37:53.510Z,15.47
2018-02-20T16:43:25.973Z,16.30
2018-02-20T16:45:53.615Z,15.47
2018-02-20T16:48:37.230Z,16.50
2018-02-20T16:51:06.720Z,15.33
2018-02-20T16:53:34.435Z,15.00
2018-02-20T16:56:02.077Z,16.00
2018-02-20T16:58:29.755Z,16.50
2018-02-20T17:00:57.404Z,16.67
2018-02-20T17:03:25.131Z,16.77
2018-02-20T17:05:53.148Z,16.97
2018-02-20T17:08:20.835Z,15.93
2018-02-20T17:10:48.512Z,16.30
2018-02-20T17:13:16.331Z,16.37
2018-02-20T17:15:44.091Z,15.57
2018-02-20T17:18:11.751Z,15.67
2018-02-20T17:20:40.320Z,17.67
2018-02-20T17:23:07.985Z,16.57
2018-02-20T17:25:36.373Z,17.57
2018-02-20T17:28:04.841Z,16.63
2018-02-20T17:30:32.487Z,17.00
2018-02-20T17:33:00.102Z,21.30
2018-02-20T17:35:28.548Z,18.53
2018-02-20T17:41:04.882Z,27.93
2018-02-20T17:43:32.487Z,18.93
2018-02-20T17:46:00.944Z,28.17
2018-02-20T17:48:28.556Z,37.43
2018-02-20T17:50:56.980Z,20.43
2018-02-20T17:53:24.639Z,26.43
2018-02-20T17:55:52.338Z,20.23
2018-02-20T17:58:19.970Z,30.80
2018-02-20T18:00:48.480Z,24.87
2018-02-20T18:03:16.256Z,22.23
2018-02-20T18:05:44.174Z,29.17
2018-02-20T18:08:11.803Z,24.80
2018-02-20T18:10:40.271Z,29.27
2018-02-20T18:13:07.924Z,26.13
2018-02-20T18:15:35.592Z,18.60
2018-02-20T18:18:03.436Z,21.50
2018-02-20T18:20:31.088Z,21.53
2018-02-20T18:22:59.544Z,19.77
2018-02-20T18:25:52.379Z,21.77
2018-02-20T18:28:20.155Z,19.47
2018-02-20T18:30:47.811Z,21.17
2018-02-20T18:33:16.196Z,25.13
2018-02-20T18:35:46.139Z,21.23
2018-02-20T18:38:13.789Z,23.80
2018-02-20T18:40:42.185Z,26.03
2018-02-20T18:43:10.644Z,25.67
2018-02-20T18:45:38.279Z,27.77
2018-02-20T18:48:05.911Z,24.90
2018-02-20T18:50:33.584Z,23.00
2018-02-20T18:53:01.248Z,21.93
2018-02-20T18:55:28.898Z,25.63
2018-02-20T18:57:56.512Z,27.00
2018-02-20T19:00:24.168Z,23.50
2018-02-20T19:02:51.851Z,21.73
2018-02-20T19:05:19.484Z,23.27
2018-02-20T19:10:52.872Z,23.67
2018-02-20T19:13:20.532Z,23.20
2018-02-20T19:15:48.305Z,25.20
2018-02-20T19:18:16.177Z,24.17
2018-02-20T19:20:43.808Z,21.37
2018-02-20T19:23:12.240Z,23.13
2018-02-20T19:25:39.899Z,22.33
2018-02-20T19:28:07.524Z,28.17
2018-02-20T19:30:35.196Z,25.10
2018-02-20T19:33:02.875Z,19.77
2018-02-20T19:35:30.587Z,25.60
2018-02-20T19:37:58.420Z,32.10
2018-02-20T19:40:26.176Z,21.77
2018-02-20T19:48:43.316Z,22.50
2018-02-20T19:51:11.773Z,23.43
2018-02-20T19:53:39.417Z,23.13
2018-02-20T19:56:07.032Z,24.10
2018-02-20T19:58:34.679Z,23.97
2018-02-20T20:01:02.333Z,22.67
2018-02-20T20:03:30.044Z,25.60
2018-02-20T20:06:08.075Z,25.47
2018-02-20T20:08:35.848Z,22.97
2018-02-20T20:11:03.553Z,25.40
2018-02-20T20:13:31.972Z,25.40
2018-02-20T20:15:59.644Z,25.60
2018-02-20T20:21:22.037Z,30.17
2018-02-20T20:23:49.667Z,27.13
2018-02-20T20:26:17.303Z,26.47
2018-02-20T20:28:44.972Z,26.27
2018-02-20T20:31:12.744Z,24.73
2018-02-20T20:33:40.437Z,25.20
2018-02-20T20:36:08.104Z,25.23
2018-02-20T20:38:35.824Z,29.90
2018-02-20T20:41:04.245Z,26.63
2018-02-20T20:43:31.899Z,31.57
2018-02-20T20:45:59.533Z,29.07
2018-02-20T20:48:27.163Z,26.53
2018-02-20T20:50:54.837Z,27.43
2018-02-20T20:53:22.467Z,24.43
2018-02-20T20:55:50.116Z,26.47
2018-02-20T20:58:17.729Z,24.97
2018-02-20T21:00:45.375Z,24.43
2018-02-20T21:03:13.059Z,26.87
2018-02-20T21:05:40.703Z,25.03
2018-02-20T21:08:08.377Z,24.27
2018-02-20T21:10:36.015Z,22.73
2018-02-20T21:13:04.451Z,23.33
2018-02-20T21:15:32.095Z,24.90
2018-02-20T21:18:00.254Z,23.40
2018-02-20T21:20:29.249Z,22.57
2018-02-20T21:22:57.225Z,25.27
2018-02-20T21:25:24.874Z,24.80
2018-02-20T21:27:53.555Z,34.67
2018-02-20T21:30:21.425Z,32.83
2018-02-20T21:32:49.095Z,26.47
2018-02-20T21:35:16.783Z,27.53
2018-02-20T21:37:44.460Z,24.40
2018-02-20T21:40:12.110Z,24.63
2018-02-20T21:42:40.573Z,24.97
2018-02-20T21:45:08.222Z,23.07
2018-02-20T21:47:35.882Z,24.93
2018-02-20T21:50:03.592Z,22.60
2018-02-20T21:52:31.203Z,23.47
2018-02-20T21:54:59.646Z,24.17
2018-02-20T21:57:27.296Z,23.57
2018-02-20T21:59:54.965Z,23.13
2018-02-20T22:02:22.616Z,23.33
2018-02-20T22:04:50.991Z,24.63
2018-02-20T22:07:19.419Z,24.77
2018-02-20T22:09:47.059Z,23.87
2018-02-20T22:12:15.512Z,24.53
2018-02-20T22:14:43.180Z,23.93
2018-02-20T22:17:10.796Z,22.20
2018-02-20T22:19:38.422Z,26.33
2018-02-20T22:22:06.088Z,25.83
2018-02-20T22:24:33.772Z,24.13
2018-02-20T22:27:01.429Z,24.63
2018-02-20T22:29:29.052Z,25.03
2018-02-20T22:31:56.792Z,25.57
2018-02-20T22:34:24.629Z,23.90
2018-02-20T22:36:56.912Z,25.17
2018-02-20T22:39:25.315Z,24.23
2018-02-20T22:41:53.771Z,24.47
2018-02-20T22:44:21.495Z,22.83
2018-02-20T22:46:49.124Z,24.83
2018-02-20T22:49:16.763Z,24.97
2018-02-20T22:51:44.421Z,23.77
2018-02-20T22:54:12.088Z,23.93
2018-02-20T22:56:39.752Z,25.13
2018-02-20T22:59:08.139Z,23.47
2018-02-20T23:01:36.552Z,25.03
2018-02-20T23:04:04.216Z,24.27
2018-02-20T23:06:32.639Z,25.73
2018-02-20T23:09:00.328Z,24.90
2018-02-20T23:11:39.692Z,23.63
2018-02-20T23:14:07.356Z,24.07
2018-02-20T23:16:34.963Z,23.60
2018-02-20T23:19:03.378Z,25.07
2018-02-20T23:21:30.991Z,24.73
2018-02-20T23:23:58.666Z,24.50
2018-02-20T23:26:26.354Z,24.93
2018-02-20T23:28:53.992Z,24.67
2018-02-20T23:31:21.664Z,25.30
2018-02-20T23:33:49.303Z,25.40
2018-02-20T23:36:16.980Z,26.13
2018-02-20T23:38:45.406Z,24.77
2018-02-20T23:41:13.033Z,24.63
2018-02-20T23:43:40.675Z,25.50
2018-02-20T23:46:08.286Z,25.17
2018-02-20T23:48:35.940Z,25.03
2018-02-20T23:51:09.102Z,24.90
2018-02-20T23:53:36.765Z,24.73
2018-02-20T23:56:04.444Z,24.37
2018-02-20T23:58:32.070Z,24.77
